Palestine, North Carolina
Current Conditions -  °F | °C
As of 2:55 AM on Friday 24 Oct 2014 (Local Time) from KVUJ Reporting Station
Clear Clear  
Wind Chill: 43°   Ceiling: Unl
Heat Index: 43°   Visibility: 10mi
Dew Point: 41°   Wind: 0mph
Humidity: 91%   Direction: NA
Pressure: 30.09"   Gusts: NA
Location:  35.3503°N, 80.2174°W
Report Text: KVUJ 240655Z AUTO 00000KT 10SM CLR 06/05 A3009 RMK AO2 T00610048
Loading
Personal Weather Stations






























Interactive Weather Map
Tropical Storm Tracking
New forecast layout! Learn more

10-Day Weather Forecast

Advertisements
Track Severe Weather on mobile